Time;durP1;ratioP1;P1;durP2;ratioP2;P2;SDS_P1;SDS_P2;PMS_P1;PMS_P2;Temp;Humidity;BMP_temperature;BMP_pressure;BME280_temperature;BME280_humidity;BME280_pressure;Samples;Min_cycle;Max_cycle;Signal;HPM_P1;HPM_P2
2024/03/28 00:01:18;;;;;;;4.85;2.88;;;;;;;8.81;100.00;97241.03;5477301;23;20225;-94
2024/03/28 00:25:16;;;;;;;5.85;2.05;;;;;;;9.31;100.00;97388.19;5804846;23;20025;31
2024/03/28 00:27:51;;;;;;;3.42;2.15;;;;;;;8.64;100.00;97302.69;5102723;23;20115;-95
2024/03/28 00:33:27;;;;;;;7.03;2.53;;;;;;;8.28;100.00;97268.84;4998388;28;20070;-96
2024/03/28 00:39:06;;;;;;;7.60;2.50;;;;;;;8.51;100.00;97328.84;5491671;23;20099;-96
2024/03/28 00:41:32;;;;;;;4.45;2.28;;;;;;;8.25;100.00;97292.81;5006828;23;20070;-95
2024/03/28 00:44:00;;;;;;;4.20;1.70;;;;;;;8.19;100.00;97304.53;4990415;28;20046;-95
2024/03/28 00:47:02;;;;;;;3.08;1.73;;;;;;;9.00;100.00;97434.59;4988960;28;20038;-94
2024/03/28 00:54:51;;;;;;;12.25;2.13;;;;;;;8.25;100.00;97318.47;5372997;23;20043;-95
2024/03/28 01:03:03;;;;;;;3.22;1.60;;;;;;;7.94;100.00;97293.22;5103585;23;20890;-94
2024/03/28 01:06:06;;;;;;;5.43;1.40;;;;;;;8.20;100.00;97319.50;4997969;28;20026;-94
2024/03/28 01:09:11;;;;;;;2.45;1.20;;;;;;;8.46;100.00;97370.59;4970036;28;20051;-95
2024/03/28 01:11:54;;;;;;;4.68;1.35;;;;;;;8.02;100.00;97299.94;5167681;23;20043;-94
2024/03/28 01:16:58;;;;;;;6.20;2.58;;;;;;;7.98;100.00;97319.50;5150312;23;20078;-95
2024/03/28 01:25:05;;;;;;;2.28;1.08;;;;;;;7.89;100.00;97303.97;5010766;28;20096;-94
2024/03/28 01:27:36;;;;;;;5.55;1.33;;;;;;;7.99;100.00;97317.72;5007546;23;20067;-94
2024/03/28 01:30:36;;;;;;;4.20;1.60;;;;;;;7.99;100.00;97305.34;4970129;28;20047;-94
2024/03/28 01:36:32;;;;;;;2.03;1.25;;;;;;;8.21;100.00;97357.44;5083424;23;20046;-96
2024/03/28 01:39:32;;;;;;;3.65;1.55;;;;;;;8.11;100.00;97335.78;5012180;28;20033;-95
2024/03/28 01:44:42;;;;;;;6.10;1.40;;;;;;;8.50;100.00;97369.53;5021035;23;20097;-95
2024/03/28 01:47:24;;;;;;;4.15;1.33;;;;;;;9.11;100.00;97460.66;4986094;28;20042;-95
2024/03/28 01:49:54;;;;;;;6.07;1.52;;;;;;;8.31;100.00;97318.22;4967319;28;20062;-96
2024/03/28 01:52:24;;;;;;;3.47;1.30;;;;;;;8.47;100.00;97329.06;4963023;29;20075;-94
2024/03/28 01:57:52;;;;;;;5.28;1.80;;;;;;;8.82;100.00;97383.22;5874333;23;20021;-93
2024/03/28 02:00:42;;;;;;;7.25;1.40;;;;;;;8.88;100.00;97379.44;5139572;23;20031;-95
2024/03/28 02:03:21;;;;;;;9.32;1.58;;;;;;;8.58;100.00;97334.75;4954874;28;20047;-94
2024/03/28 02:11:00;;;;;;;4.07;1.00;;;;;;;8.42;100.00;97324.81;5422904;23;20066;-95
2024/03/28 02:13:49;;;;;;;2.22;0.82;;;;;;;9.22;100.00;97450.47;5021022;23;20149;-94
2024/03/28 02:26:14;;;;;;;4.65;1.05;;;;;;;8.74;100.00;97312.00;5190357;23;20043;-94
2024/03/28 02:28:42;;;;;;;2.00;0.68;;;;;;;8.88;100.00;97318.47;4955960;28;20074;-95
2024/03/28 02:31:34;;;;;;;4.85;1.33;;;;;;;8.70;100.00;97270.66;4965931;28;20051;-95
2024/03/28 02:34:04;;;;;;;1.33;0.52;;;;;;;8.68;100.00;97291.06;5102993;23;20031;-96
2024/03/28 02:36:41;;;;;;;3.97;1.10;;;;;;;8.62;100.00;97276.25;4990432;28;20031;-94
2024/03/28 02:47:27;;;;;;;1.90;0.63;;;;;;;9.22;100.00;97466.38;5062638;23;20038;-96
2024/03/28 02:52:40;;;;;;;1.95;1.20;;;;;;;8.62;100.00;97336.34;5166205;23;20062;-95
2024/03/28 02:58:37;;;;;;;5.32;1.75;;;;;;;8.77;100.00;97359.56;5268199;23;20056;-94
2024/03/28 03:01:07;;;;;;;4.03;0.88;;;;;;;9.15;100.00;97402.13;4949969;28;20058;-95
2024/03/28 03:03:52;;;;;;;2.80;0.73;;;;;;;9.49;100.00;97450.19;4955360;29;20062;-95
2024/03/28 03:06:31;;;;;;;3.55;0.73;;;;;;;8.83;100.00;97354.00;4950561;29;20044;-95
2024/03/28 03:09:28;;;;;;;4.47;0.88;;;;;;;8.96;100.00;97354.34;4959229;29;20066;-96
2024/03/28 03:12:05;;;;;;;1.80;0.60;;;;;;;8.93;100.00;97353.59;4963827;29;20036;-95
2024/03/28 03:17:30;;;;;;;6.63;0.68;;;;;;;9.11;100.00;97346.63;4979686;23;20111;-95
2024/03/28 03:20:03;;;;;;;2.97;0.73;;;;;;;9.89;100.00;97491.78;5226771;23;20754;-95
2024/03/28 03:23:10;;;;;;;3.65;0.70;;;;;;;9.04;100.00;97357.53;4965344;28;20078;-95
2024/03/28 03:55:33;;;;;;;2.67;1.23;;;;;;;9.57;100.00;97425.03;6281218;22;20063;-96
2024/03/28 04:06:04;;;;;;;7.65;1.40;;;;;;;9.45;100.00;97370.75;6281536;22;20006;-95
2024/03/28 04:09:13;;;;;;;7.88;1.13;;;;;;;9.69;100.00;97406.84;6276530;22;20037;-95
2024/03/28 04:12:22;;;;;;;1.33;1.00;;;;;;;9.51;100.00;97369.59;6315144;22;20010;-96
2024/03/28 04:32:05;;;;;;;4.00;1.33;;;;;;;10.33;100.00;97515.47;6282447;22;20022;-94
2024/03/28 04:38:03;;;;;;;2.72;1.10;;;;;;;9.52;100.00;97387.25;6258933;22;20024;-94
2024/03/28 04:40:32;;;;;;;3.97;0.95;;;;;;;10.32;100.00;97531.47;6252247;22;20034;-96
2024/03/28 04:43:01;;;;;;;4.35;2.10;;;;;;;9.59;100.00;97399.31;6287839;22;20030;-95
2024/03/28 04:45:34;;;;;;;3.17;0.90;;;;;;;10.18;100.00;97493.09;6316060;22;20029;-96
2024/03/28 04:48:06;;;;;;;3.88;2.35;;;;;;;9.66;100.00;97410.50;6270267;22;21103;-95
2024/03/28 04:50:32;;;;;;;1.60;1.13;;;;;;;10.26;100.00;97519.31;6294936;22;20019;-95
2024/03/28 04:52:58;;;;;;;1.10;1.00;;;;;;;10.24;100.00;97511.41;6295703;22;20042;-95
2024/03/28 04:58:03;;;;;;;2.55;0.88;;;;;;;9.39;100.00;97378.09;6323752;22;19995;-95
2024/03/28 05:00:29;;;;;;;2.55;1.25;;;;;;;9.55;100.00;97387.09;6290028;22;20015;-96
2024/03/28 05:02:55;;;;;;;1.65;1.27;;;;;;;9.81;100.00;97428.38;6290345;22;20463;-94
2024/03/28 05:05:21;;;;;;;5.03;1.17;;;;;;;9.42;100.00;97376.16;6269996;22;20035;-96
2024/03/28 05:07:49;;;;;;;2.03;1.10;;;;;;;9.88;100.00;97450.22;6270743;22;20707;-95
2024/03/28 05:10:18;;;;;;;3.17;1.73;;;;;;;9.52;100.00;97394.31;6264722;22;20096;-96
2024/03/28 05:13:01;;;;;;;5.97;1.83;;;;;;;9.52;100.00;97391.66;6332478;22;20014;-95
2024/03/28 05:15:28;;;;;;;3.42;1.80;;;;;;;9.74;100.00;97436.72;6288076;22;20063;-96
2024/03/28 05:17:54;;;;;;;6.10;1.65;;;;;;;9.87;100.00;97462.63;6266841;22;20035;-95
2024/03/28 05:20:23;;;;;;;2.33;0.90;;;;;;;9.52;100.00;97396.97;6265904;22;20019;-96
2024/03/28 05:30:54;;;;;;;1.30;1.10;;;;;;;9.61;100.00;97416.03;6278170;22;20023;-96
2024/03/28 05:33:21;;;;;;;6.45;1.45;;;;;;;9.83;100.00;97449.56;6295694;22;20098;-94
2024/03/28 05:41:26;;;;;;;4.90;1.27;;;;;;;10.36;100.00;97525.94;6289625;22;20028;31
2024/03/28 05:49:15;;;;;;;1.98;1.35;;;;;;;10.42;100.00;97524.81;6257011;22;20038;-95
2024/03/28 05:51:45;;;;;;;3.63;1.23;;;;;;;10.43;100.00;97538.03;6264085;22;20051;-95
2024/03/28 05:54:13;;;;;;;5.63;0.90;;;;;;;9.69;100.00;97433.38;6266968;22;20016;-95
2024/03/28 05:57:02;;;;;;;1.05;0.90;;;;;;;10.44;100.00;97554.84;6258152;22;21124;-95
2024/03/28 05:59:32;;;;;;;5.72;1.13;;;;;;;9.79;100.00;97455.94;6248806;22;20035;-95
2024/03/28 06:09:38;;;;;;;3.97;0.88;;;;;;;9.77;100.00;97439.22;6318236;22;20023;-96
2024/03/28 06:12:04;;;;;;;1.58;1.00;;;;;;;10.43;100.00;97546.03;6285835;22;20056;-96
2024/03/28 06:14:30;;;;;;;1.13;0.90;;;;;;;9.60;100.00;97411.63;6286227;22;20015;-96
2024/03/28 06:16:56;;;;;;;1.50;1.35;;;;;;;9.68;100.00;97421.06;6285500;22;20011;-94
2024/03/28 06:19:22;;;;;;;5.63;1.88;;;;;;;10.46;100.00;97545.84;6282301;22;20095;-94
2024/03/28 06:21:48;;;;;;;1.45;1.13;;;;;;;9.88;100.00;97448.41;6283242;22;20015;-95
2024/03/28 06:24:15;;;;;;;2.97;1.58;;;;;;;10.47;100.00;97558.22;6287961;22;20110;-94
2024/03/28 06:26:42;;;;;;;9.65;1.17;;;;;;;9.46;100.00;97409.59;6282128;22;20019;-93
2024/03/28 06:29:08;;;;;;;2.88;1.20;;;;;;;10.06;100.00;97501.63;6288978;22;20455;-93
2024/03/28 06:31:40;;;;;;;2.85;1.38;;;;;;;9.84;100.00;97478.69;6281889;22;20019;-94
2024/03/28 06:34:06;;;;;;;3.63;1.35;;;;;;;9.63;100.00;97443.34;6281883;22;20035;-94
2024/03/28 06:36:32;;;;;;;3.50;1.08;;;;;;;9.77;100.00;97447.19;6282755;22;20018;-94
2024/03/28 06:38:58;;;;;;;3.28;1.80;;;;;;;10.46;100.00;97593.69;6281675;22;20076;-91
2024/03/28 06:41:26;;;;;;;1.73;1.25;;;;;;;10.43;100.00;97593.84;6281892;22;20042;-93
2024/03/28 06:43:54;;;;;;;4.13;0.93;;;;;;;10.26;100.00;97570.66;6282546;22;20019;-94
2024/03/28 06:46:20;;;;;;;1.13;0.77;;;;;;;9.70;100.00;97481.09;6282977;22;20089;-91
2024/03/28 06:48:46;;;;;;;5.18;1.35;;;;;;;10.39;100.00;97608.22;6285573;22;20011;-89
2024/03/28 06:51:12;;;;;;;2.72;1.38;;;;;;;9.74;100.00;97495.13;6302116;22;20007;-91
2024/03/28 06:53:38;;;;;;;2.67;1.23;;;;;;;10.44;100.00;97608.00;6304408;22;20037;-90
2024/03/28 06:56:05;;;;;;;3.88;1.05;;;;;;;10.53;100.00;97610.22;6303057;22;20019;-92
2024/03/28 06:58:31;;;;;;;9.63;1.67;;;;;;;10.16;100.00;97574.66;6289783;22;20015;-94
2024/03/28 07:01:03;;;;;;;6.05;1.77;;;;;;;9.70;100.00;97512.09;6285181;22;20030;-94
2024/03/28 07:03:29;;;;;;;4.85;1.27;;;;;;;9.73;100.00;97494.22;6286214;22;20011;-94
2024/03/28 07:05:55;;;;;;;2.78;0.90;;;;;;;10.37;100.00;97599.44;6286569;22;20015;-92
2024/03/28 07:08:21;;;;;;;2.35;1.48;;;;;;;10.38;100.00;97593.19;6277860;22;20023;-94
2024/03/28 07:10:47;;;;;;;4.60;1.73;;;;;;;10.00;100.00;97544.41;6277203;22;20439;-93
2024/03/28 07:13:13;;;;;;;5.70;1.90;;;;;;;10.44;100.00;97631.91;6276525;22;20012;-93
2024/03/28 07:15:39;;;;;;;2.97;0.80;;;;;;;10.25;100.00;97595.50;6249076;22;20069;-93
2024/03/28 07:18:07;;;;;;;2.45;0.93;;;;;;;9.80;100.00;97500.13;6278370;22;20083;-95
2024/03/28 07:20:33;;;;;;;3.67;1.50;;;;;;;9.74;100.00;97482.69;6277129;22;20042;-93
2024/03/28 07:22:59;;;;;;;4.88;1.20;;;;;;;10.35;100.00;97564.09;6277223;22;20012;-95
2024/03/28 07:25:27;;;;;;;3.55;1.38;;;;;;;10.43;100.00;97566.38;6276329;22;20030;-94
2024/03/28 07:27:54;;;;;;;5.20;1.75;;;;;;;10.84;100.00;97614.13;6278500;22;20011;-94
2024/03/28 07:30:20;;;;;;;2.85;1.13;;;;;;;10.89;100.00;97618.31;6277142;22;20031;-96
2024/03/28 07:32:48;;;;;;;2.85;1.27;;;;;;;10.96;100.00;97626.00;6276421;22;20422;-95
2024/03/28 07:35:16;;;;;;;5.07;1.40;;;;;;;11.25;100.00;97614.81;6276735;22;20020;-93
2024/03/28 07:37:42;;;;;;;2.17;1.40;;;;;;;11.20;100.00;97576.09;6278683;22;20016;-93
2024/03/28 07:40:09;;;;;;;7.43;1.08;;;;;;;11.68;100.00;97628.69;6277712;22;20042;-94
2024/03/28 07:42:35;;;;;;;2.83;1.10;;;;;;;11.79;100.00;97609.50;6277455;22;20019;-94
2024/03/28 07:45:05;;;;;;;3.97;1.83;;;;;;;11.36;100.00;97504.31;6284569;22;20019;-93
2024/03/28 07:47:31;;;;;;;4.88;1.67;;;;;;;11.92;100.00;97628.44;6280920;22;20039;-95
2024/03/28 07:49:59;;;;;;;2.55;1.27;;;;;;;12.03;100.00;97628.75;6280625;22;20069;-95
2024/03/28 07:52:26;;;;;;;3.90;1.15;;;;;;;12.01;100.00;97622.63;6277040;22;20016;-92
2024/03/28 07:54:52;;;;;;;3.03;0.88;;;;;;;11.23;100.00;97491.66;6277563;22;20107;-96
2024/03/28 07:57:18;;;;;;;9.43;1.70;;;;;;;11.81;100.00;97574.81;6279185;22;20020;-95
2024/03/28 07:59:44;;;;;;;5.65;1.92;;;;;;;12.40;100.00;97624.16;6281177;22;20023;-94
2024/03/28 08:02:12;;;;;;;4.07;1.02;;;;;;;12.42;100.00;97627.63;6276452;22;20316;-94
2024/03/28 08:04:38;;;;;;;0.95;0.90;;;;;;;12.57;100.00;97646.41;6276871;22;20022;-95
2024/03/28 08:07:04;;;;;;;9.68;1.52;;;;;;;12.93;100.00;97632.91;6277347;22;20020;-94
2024/03/28 08:09:32;;;;;;;6.50;1.60;;;;;;;12.97;100.00;97580.22;6278315;22;20054;-93
2024/03/28 08:11:58;;;;;;;1.95;1.17;;;;;;;13.14;100.00;97562.31;6277730;22;20012;-93
2024/03/28 08:14:25;;;;;;;3.92;1.05;;;;;;;13.26;100.00;97590.13;6276662;22;20070;-93
2024/03/28 08:16:53;;;;;;;4.32;1.50;;;;;;;14.20;100.00;97634.59;6274401;22;20015;-95
2024/03/28 08:19:19;;;;;;;1.63;1.30;;;;;;;14.42;100.00;97628.81;6277549;22;20536;-93
2024/03/28 08:21:45;;;;;;;2.88;1.30;;;;;;;14.34;100.00;97640.00;6276023;22;20023;-95
2024/03/28 08:24:11;;;;;;;2.58;0.60;;;;;;;14.24;100.00;97626.28;6277229;22;20353;-94
2024/03/28 08:26:41;;;;;;;10.98;1.42;;;;;;;13.82;100.00;97574.47;6277181;22;20019;-93
2024/03/28 08:29:07;;;;;;;3.20;1.45;;;;;;;13.70;100.00;97609.91;6278130;22;20024;-94
2024/03/28 08:31:33;;;;;;;2.63;1.35;;;;;;;13.87;100.00;97639.16;6276682;22;20075;-95
2024/03/28 08:33:59;;;;;;;3.03;2.00;;;;;;;13.82;100.00;97632.41;6277930;22;20070;-95
2024/03/28 08:36:28;;;;;;;8.05;1.90;;;;;;;13.88;100.00;97591.94;6283012;22;20072;-95
2024/03/28 08:38:55;;;;;;;2.25;1.25;;;;;;;13.79;100.00;97561.25;6286198;22;20026;-96
2024/03/28 08:41:22;;;;;;;4.90;1.38;;;;;;;14.53;100.00;97624.53;6285475;22;20097;-96
2024/03/28 08:43:53;;;;;;;4.07;2.13;;;;;;;14.02;100.00;97519.81;6286546;22;20016;-96
2024/03/28 08:46:40;;;;;;;5.65;1.75;;;;;;;13.80;100.00;97488.19;6284993;22;20038;-94
2024/03/28 08:49:16;;;;;;;4.50;1.45;;;;;;;14.27;100.00;97555.72;6286330;22;20003;-95
2024/03/28 08:51:43;;;;;;;3.10;1.73;;;;;;;14.99;100.00;97634.22;6286813;22;20011;-96
2024/03/28 08:54:14;;;;;;;8.52;2.90;;;;;;;14.80;100.00;97578.31;6288498;22;20015;-96
2024/03/28 08:56:41;;;;;;;6.70;1.98;;;;;;;14.31;100.00;97493.97;6289423;22;20012;-95
2024/03/28 08:59:10;;;;;;;5.63;2.03;;;;;;;14.54;100.00;97499.66;6290884;22;20065;-96
2024/03/28 09:01:36;;;;;;;3.22;1.50;;;;;;;14.75;100.00;97519.72;6287257;22;20051;-95
2024/03/28 09:04:02;;;;;;;6.72;2.13;;;;;;;15.66;100.00;97564.69;6287019;22;20016;-93
2024/03/28 09:06:29;;;;;;;7.55;1.80;;;;;;;16.44;100.00;97628.28;6286564;22;20044;-95
2024/03/28 09:08:58;;;;;;;9.30;1.50;;;;;;;15.36;100.00;97509.50;6285114;22;20027;-96
2024/03/28 09:11:30;;;;;;;11.73;1.92;;;;;;;16.27;100.00;97621.38;6284811;22;20008;-96
2024/03/28 09:14:03;;;;;;;4.25;2.00;;;;;;;15.79;100.00;97481.66;6285898;22;20020;-96
2024/03/28 09:16:34;;;;;;;4.25;1.98;;;;;;;16.11;100.00;97599.25;6281408;22;20030;-96
2024/03/28 09:19:00;;;;;;;6.53;2.40;;;;;;;16.20;100.00;97623.63;6281868;22;20042;-96
2024/03/28 09:21:27;;;;;;;5.35;3.75;;;;;;;16.38;100.00;97626.84;6283527;22;20015;-94
2024/03/28 09:23:58;;;;;;;3.90;1.48;;;;;;;15.66;100.00;97521.81;6282926;22;20448;-96
2024/03/28 09:26:28;;;;;;;3.83;1.45;;;;;;;15.79;100.00;97505.78;6287648;22;20020;-96
2024/03/28 09:28:58;;;;;;;4.05;2.05;;;;;;;15.89;100.00;97579.25;6284982;22;20428;-93
2024/03/28 09:31:27;;;;;;;4.93;1.77;;;;;;;15.21;100.00;97545.34;6283054;22;20115;-96
2024/03/28 09:33:56;;;;;;;6.57;2.13;;;;;;;15.20;100.00;97557.00;6284962;22;20397;-95
2024/03/28 09:36:22;;;;;;;3.03;1.60;;;;;;;15.62;100.00;97632.84;6284219;22;20015;-96
2024/03/28 09:38:50;;;;;;;5.82;1.92;;;;;;;14.73;100.00;97526.16;6281827;22;20087;-94
2024/03/28 09:41:25;;;;;;;9.43;2.00;;;;;;;14.64;100.00;97585.56;6280016;22;20015;-92
2024/03/28 09:43:58;;;;;;;4.88;1.42;;;;;;;14.95;100.00;97638.91;6288194;22;20020;-95
2024/03/28 09:46:28;;;;;;;;;;;;;;;14.71;100.00;97629.75;6283127;22;20050;-94
2024/03/28 09:49:10;;;;;;;5.50;1.75;;;;;;;14.70;100.00;97634.25;6255766;22;19964;-96
2024/03/28 09:51:42;;;;;;;5.85;2.13;;;;;;;14.50;100.00;97548.97;6281008;22;20027;-94
2024/03/28 09:54:09;;;;;;;5.75;1.65;;;;;;;15.03;100.00;97626.84;6281833;22;20026;-96
2024/03/28 09:56:36;;;;;;;6.78;1.77;;;;;;;14.92;100.00;97633.75;6280876;22;20026;-94
2024/03/28 09:59:04;;;;;;;6.10;1.95;;;;;;;14.37;100.00;97519.44;6285251;22;20012;-96
2024/03/28 10:01:33;;;;;;;8.45;1.70;;;;;;;15.05;100.00;97644.56;6262099;22;20049;-95
2024/03/28 10:04:10;;;;;;;8.65;2.17;;;;;;;14.70;100.00;97586.06;6281668;22;20022;-93
2024/03/28 10:06:36;;;;;;;6.95;2.22;;;;;;;14.83;100.00;97639.66;6287973;22;20035;-95
2024/03/28 10:09:08;;;;;;;2.45;1.60;;;;;;;14.14;100.00;97523.56;6282378;22;20024;-94
2024/03/28 10:12:02;;;;;;;7.30;2.00;;;;;;;14.60;100.00;97618.84;6284989;22;20106;-96
2024/03/28 10:14:33;;;;;;;7.15;1.90;;;;;;;14.53;100.00;97565.69;6294981;22;20067;-96
2024/03/28 10:17:01;;;;;;;11.10;2.38;;;;;;;14.56;100.00;97575.38;6281904;22;20023;-96
2024/03/28 10:19:31;;;;;;;6.80;2.00;;;;;;;14.35;100.00;97505.31;6285102;22;20083;-95
2024/03/28 10:22:09;;;;;;;;;;;;;;;15.22;100.00;97619.34;6286756;22;20091;-96
2024/03/28 10:24:51;;;;;;;6.22;1.73;;;;;;;14.94;100.00;97556.91;6284410;22;19915;-96
2024/03/28 10:27:22;;;;;;;9.88;2.03;;;;;;;15.45;100.00;97614.34;6286675;22;20075;-95
2024/03/28 10:29:54;;;;;;;10.65;2.85;;;;;;;14.78;100.00;97486.56;6288774;22;20016;-95
2024/03/28 10:32:23;;;;;;;5.05;2.15;;;;;;;15.01;100.00;97549.31;6284046;22;20024;-96
2024/03/28 10:34:55;;;;;;;4.38;2.25;;;;;;;14.84;100.00;97509.41;6286705;22;20016;-96
2024/03/28 10:37:39;;;;;;;9.52;2.55;;;;;;;14.86;100.00;97497.63;6263729;22;20026;-94
2024/03/28 10:40:30;;;;;;;9.30;1.92;;;;;;;14.66;100.00;97485.53;6262808;22;20050;-95
2024/03/28 10:43:25;;;;;;;9.38;2.55;;;;;;;15.11;100.00;97603.13;6286597;22;20016;-94
2024/03/28 10:45:52;;;;;;;7.70;2.97;;;;;;;14.75;100.00;97524.22;6286391;22;20016;-92
2024/03/28 10:48:41;;;;;;;;;;;;;;;;;;;;;
2024/03/28 10:51:18;;;;;;;11.40;2.58;;;;;;;14.97;100.00;97472.84;6263498;22;20495;-96
2024/03/28 10:54:04;;;;;;;9.73;3.35;;;;;;;15.14;100.00;97445.81;6266888;22;20022;-96
2024/03/28 10:56:41;;;;;;;6.85;2.70;;;;;;;15.89;100.00;97557.78;6259630;22;20083;-96
2024/03/28 10:59:17;;;;;;;12.32;3.13;;;;;;;15.28;100.00;97449.38;6288107;22;20015;-96
2024/03/28 11:01:43;;;;;;;;;;;;;;;16.28;100.00;97555.16;6262405;22;20065;-96
2024/03/28 11:04:16;;;;;;;8.27;2.15;;;;;;;16.48;100.00;97556.44;6262488;22;19911;-95
2024/03/28 11:06:49;;;;;;;10.52;2.97;;;;;;;16.78;100.00;97569.53;6261233;22;20020;-96
2024/03/28 11:09:17;;;;;;;15.13;2.78;;;;;;;16.45;100.00;97511.91;6256915;22;20893;-96
2024/03/28 11:11:46;;;;;;;8.63;3.53;;;;;;;16.12;100.00;97454.31;6259269;22;20118;-96
2024/03/28 11:14:15;;;;;;;14.98;3.13;;;;;;;16.66;100.00;97575.78;6261329;22;20094;-95
2024/03/28 11:16:47;;;;;;;23.70;3.95;;;;;;;16.40;100.00;97591.88;6259944;22;20012;-96
2024/03/28 11:19:16;;;;;;;15.55;3.90;;;;;;;15.59;100.00;97501.75;6259303;22;20106;-96
2024/03/28 11:22:07;;;;;;;15.35;3.40;;;;;;;15.90;100.00;97586.34;6262714;22;20111;-96
2024/03/28 11:24:38;;;;;;;15.15;4.22;;;;;;;15.35;100.00;97505.13;6265684;22;20015;-96
2024/03/28 11:27:22;;;;;;;12.00;3.08;;;;;;;15.61;100.00;97518.56;6256200;22;20023;-96
2024/03/28 11:29:53;;;;;;;12.77;3.03;;;;;;;15.92;100.00;97511.19;6254428;22;20019;-92
2024/03/28 11:32:23;;;;;;;9.05;2.47;;;;;;;16.20;100.00;97502.06;6254148;22;20015;-94
2024/03/28 11:34:51;;;;;;;;;;;;;;;16.89;100.00;97592.94;6270338;22;20121;-94
2024/03/28 11:37:24;;;;;;;14.55;4.57;;;;;;;17.00;100.00;97590.34;6278749;22;19938;-95
2024/03/28 11:40:03;;;;;;;14.10;3.28;;;;;;;16.82;100.00;97588.00;6277237;22;20016;-96
2024/03/28 11:42:50;;;;;;;15.10;2.75;;;;;;;16.39;100.00;97464.03;6252581;23;20081;-96
2024/03/28 11:45:23;;;;;;;15.13;3.38;;;;;;;16.47;100.00;97517.19;6243363;23;20047;-96
2024/03/28 11:47:58;;;;;;;15.85;3.10;;;;;;;16.40;100.00;97461.25;6257860;23;20024;-95
2024/03/28 11:50:24;;;;;;;16.25;3.25;;;;;;;17.07;100.00;97621.19;6257015;23;20031;-95
2024/03/28 11:53:07;;;;;;;10.05;3.83;;;;;;;16.88;100.00;97575.97;6255440;23;20107;-95
2024/03/28 11:55:37;;;;;;;10.13;4.70;;;;;;;17.16;100.00;97617.81;6254543;23;20013;-96
2024/03/28 11:58:04;;;;;;;15.65;3.40;;;;;;;16.66;100.00;97616.91;6261491;23;20044;-96
2024/03/28 12:00:31;;;;;;;17.88;3.42;;;;;;;16.67;100.00;97623.13;6262411;23;20019;-96
2024/03/28 12:03:00;;;;;;;14.48;3.40;;;;;;;16.82;100.00;97632.81;6260132;23;20083;-96
2024/03/28 12:05:29;;;;;;;18.70;3.42;;;;;;;15.89;100.00;97481.88;6263317;23;20019;-95
2024/03/28 12:08:04;;;;;;;14.95;3.60;;;;;;;16.43;100.00;97587.13;6266768;22;20083;-96
2024/03/28 12:10:33;;;;;;;14.77;3.67;;;;;;;16.15;100.00;97552.47;6263181;23;20036;-96
2024/03/28 12:13:08;;;;;;;15.05;2.85;;;;;;;15.85;100.00;97497.31;6259426;23;20022;-96
2024/03/28 12:15:42;;;;;;;16.13;3.13;;;;;;;16.63;100.00;97622.47;6253820;23;20012;-96
2024/03/28 12:18:09;;;;;;;13.90;4.25;;;;;;;16.59;100.00;97629.00;6263291;23;20030;-96
2024/03/28 12:20:40;;;;;;;14.20;3.17;;;;;;;15.80;100.00;97516.41;6261241;23;20032;-95
2024/03/28 12:23:08;;;;;;;12.95;2.42;;;;;;;16.02;100.00;97515.78;6253517;23;20321;-96
2024/03/28 12:25:35;;;;;;;18.90;2.63;;;;;;;15.80;100.00;97492.28;6252660;23;20348;-94
2024/03/28 12:28:17;;;;;;;13.93;3.03;;;;;;;16.58;100.00;97648.78;6258290;23;20016;-96
2024/03/28 12:30:51;;;;;;;10.88;3.33;;;;;;;16.53;100.00;97635.69;6256193;23;20137;-96
2024/03/28 12:33:20;;;;;;;19.55;3.95;;;;;;;15.81;100.00;97528.00;6257663;23;20016;-96
2024/03/28 12:36:07;;;;;;;9.30;2.75;;;;;;;16.70;100.00;97652.41;6285545;22;20080;-96
2024/03/28 12:38:51;;;;;;;20.42;3.72;;;;;;;16.81;100.00;97652.56;6270232;22;20016;-96
2024/03/28 12:42:05;;;;;;;15.23;3.25;;;;;;;16.19;100.00;97517.28;6237462;23;20031;-96
2024/03/28 12:45:21;;;;;;;12.00;2.72;;;;;;;16.05;100.00;97537.97;6236694;23;20004;-95
2024/03/28 12:48:04;;;;;;;20.67;3.47;;;;;;;16.62;100.00;97588.53;6283298;22;20044;-96
2024/03/28 12:50:57;;;;;;;15.35;4.35;;;;;;;16.12;100.00;97560.75;6330530;22;20011;-96
2024/03/28 12:54:09;;;;;;;17.05;3.80;;;;;;;16.08;100.00;97560.09;6306456;22;20019;-95
2024/03/28 12:57:07;;;;;;;16.50;3.28;;;;;;;16.27;100.00;97610.66;6295502;22;20031;-94
2024/03/28 12:59:40;;;;;;;13.32;2.67;;;;;;;15.80;100.00;97578.03;6336200;22;20019;-93
2024/03/28 13:02:08;;;;;;;11.18;2.63;;;;;;;16.07;100.00;97574.47;6273806;22;20057;-93
2024/03/28 13:10:41;;;;;;;16.65;3.85;;;;;;;16.83;100.00;97579.00;6303128;22;20015;-94
2024/03/28 13:17:12;;;;;;;11.85;3.10;;;;;;;16.73;100.00;97551.06;6290703;22;20016;-96
2024/03/28 13:19:53;;;;;;;15.30;3.22;;;;;;;17.57;100.00;97664.16;6208287;23;20012;-96
2024/03/28 13:22:22;;;;;;;13.02;2.92;;;;;;;16.92;100.00;97585.53;6217192;23;20020;-96
2024/03/28 13:25:03;;;;;;;15.23;2.75;;;;;;;16.70;100.00;97596.94;6241864;23;20349;-96
2024/03/28 13:28:19;;;;;;;17.08;3.17;;;;;;;16.44;100.00;97604.13;6239791;23;20031;-94
2024/03/28 13:30:47;;;;;;;10.43;2.50;;;;;;;16.17;100.00;97593.47;6262933;23;20035;-96
2024/03/28 13:33:45;;;;;;;11.48;2.58;;;;;;;16.09;100.00;97607.41;6242247;23;20013;-96
2024/03/28 13:39:03;;;;;;;18.17;4.00;;;;;;;16.23;100.00;97634.13;6262539;23;20015;-94
2024/03/28 13:41:34;;;;;;;11.85;2.70;;;;;;;16.27;100.00;97620.53;6253166;23;20020;-96
2024/03/28 13:44:00;;;;;;;16.48;2.80;;;;;;;16.86;100.00;97722.06;6247589;23;20016;-95
2024/03/28 13:46:33;;;;;;;13.63;2.90;;;;;;;16.25;100.00;97614.41;6260303;23;20051;-95
2024/03/28 13:49:26;;;;;;;15.48;3.35;;;;;;;16.88;100.00;97717.44;6262428;22;20040;-95
2024/03/28 13:51:56;;;;;;;20.02;3.53;;;;;;;16.95;100.00;97716.03;6258350;23;20020;-96
2024/03/28 13:54:25;;;;;;;12.25;2.47;;;;;;;16.52;100.00;97609.78;6267062;22;20134;-96
2024/03/28 13:56:53;;;;;;;21.80;3.90;;;;;;;16.54;100.00;97599.81;6261199;22;20031;-94
2024/03/28 13:59:22;;;;;;;13.68;2.30;;;;;;;17.24;100.00;97727.44;6259048;23;20047;-96
2024/03/28 14:02:07;;;;;;;8.35;2.17;;;;;;;17.10;100.00;97698.84;6258641;23;20030;-96
2024/03/28 14:04:45;;;;;;;13.75;3.30;;;;;;;16.62;100.00;97602.81;6262271;23;20020;-96
2024/03/28 14:07:29;;;;;;;11.55;3.38;;;;;;;17.31;100.00;97719.81;6264038;23;20008;-96
2024/03/28 14:12:52;;;;;;;11.60;3.58;;;;;;;17.30;100.00;97736.88;6260294;23;20024;-96
2024/03/28 14:15:20;;;;;;;15.75;3.35;;;;;;;16.77;100.00;97621.50;6258094;22;20016;-96
2024/03/28 14:17:48;;;;;;;15.38;4.07;;;;;;;16.87;100.00;97662.84;6299658;22;20024;-96
2024/03/28 14:20:35;;;;;;;17.05;3.45;;;;;;;17.25;100.00;97730.00;6259822;22;20012;-96
2024/03/28 14:23:01;;;;;;;19.05;3.45;;;;;;;17.17;100.00;97712.69;6257622;22;20015;-94
2024/03/28 14:25:27;;;;;;;12.07;3.63;;;;;;;17.00;100.00;97692.41;6258638;22;20024;-95
2024/03/28 14:27:53;;;;;;;14.98;3.55;;;;;;;17.24;100.00;97733.66;6258916;22;20096;-94
2024/03/28 14:30:26;;;;;;;12.73;3.88;;;;;;;17.07;100.00;97743.84;6255998;22;20027;-95
2024/03/28 14:32:54;;;;;;;10.93;2.70;;;;;;;16.95;100.00;97698.09;6260361;22;20015;-95
2024/03/28 14:35:20;;;;;;;9.45;3.28;;;;;;;16.60;100.00;97671.00;6257269;22;20071;-96
2024/03/28 14:37:46;;;;;;;17.25;3.13;;;;;;;16.71;100.00;97695.25;6257492;22;20028;-94
2024/03/28 14:40:13;;;;;;;14.15;2.85;;;;;;;16.13;100.00;97627.66;6255895;22;20022;-94
2024/03/28 14:42:40;;;;;;;12.07;3.28;;;;;;;16.84;100.00;97741.81;6253918;22;20016;-95
2024/03/28 14:45:10;;;;;;;13.63;3.22;;;;;;;16.59;100.00;97715.78;6259994;22;20023;-96
2024/03/28 14:47:40;;;;;;;12.43;3.70;;;;;;;15.99;100.00;97615.19;6257268;22;20015;-95
2024/03/28 14:50:11;;;;;;;11.88;3.03;;;;;;;16.40;100.00;97658.97;6260197;22;20008;-95
2024/03/28 14:52:40;;;;;;;11.63;2.72;;;;;;;16.14;100.00;97605.25;6258511;22;20023;-96
2024/03/28 14:55:06;;;;;;;17.00;4.28;;;;;;;16.53;100.00;97693.88;6260652;22;20020;-92
2024/03/28 14:57:35;;;;;;;12.48;2.92;;;;;;;16.77;100.00;97753.06;6252876;22;20012;-95
2024/03/28 15:00:03;;;;;;;12.45;2.83;;;;;;;16.01;100.00;97648.13;6254111;22;20020;-93
2024/03/28 15:02:33;;;;;;;17.45;3.47;;;;;;;16.78;100.00;97754.75;6258870;22;20016;-95
2024/03/28 15:05:01;;;;;;;13.20;4.07;;;;;;;16.38;100.00;97693.09;6258941;22;20015;-95